createdAt,value
2022-08-16T00:02:12.811Z,98745.19
2022-08-16T00:04:18.786Z,98744.13
2022-08-16T00:06:22.660Z,98743.38
2022-08-16T00:08:36.039Z,98741.84
2022-08-16T00:10:39.590Z,98742.00
2022-08-16T00:12:43.284Z,98743.94
2022-08-16T00:14:45.994Z,98749.16
2022-08-16T00:17:01.403Z,98752.25
2022-08-16T00:19:14.386Z,98756.59
2022-08-16T00:21:20.155Z,98751.59
2022-08-16T00:23:35.004Z,98756.91
2022-08-16T00:26:35.946Z,98751.50
2022-08-16T00:28:06.852Z,98749.31
2022-08-16T00:30:19.543Z,98758.97
2022-08-16T00:32:32.813Z,98759.81
2022-08-16T00:34:43.495Z,98761.44
2022-08-16T00:36:59.059Z,98756.09
2022-08-16T00:39:06.373Z,98755.34
2022-08-16T00:41:18.810Z,98761.25
2022-08-16T00:43:24.801Z,98760.59
2022-08-16T00:45:57.790Z,98762.13
2022-08-16T00:48:30.587Z,98770.56
2022-08-16T00:50:36.622Z,98762.97
2022-08-16T00:52:50.193Z,98759.47
2022-08-16T00:54:53.662Z,98757.38
2022-08-16T00:57:02.618Z,98754.50
2022-08-16T00:59:10.109Z,98750.72
2022-08-16T01:01:15.002Z,98749.69
2022-08-16T01:03:20.528Z,98756.56
2022-08-16T01:05:33.455Z,98755.34
2022-08-16T01:07:51.699Z,98758.69
2022-08-16T01:09:55.350Z,98760.72
2022-08-16T01:11:57.642Z,98760.72
2022-08-16T01:14:29.757Z,98752.53
2022-08-16T01:16:35.796Z,98759.88
2022-08-16T01:19:13.500Z,98760.34
2022-08-16T01:22:49.884Z,98758.81
2022-08-16T01:24:53.938Z,98758.19
2022-08-16T01:27:21.972Z,98757.09
2022-08-16T01:29:55.948Z,98761.69
2022-08-16T01:31:54.399Z,98757.56
2022-08-16T01:33:57.556Z,98761.69
2022-08-16T01:36:11.514Z,98761.22
2022-08-16T01:38:34.547Z,98765.03
2022-08-16T01:40:36.761Z,98766.56
2022-08-16T01:42:42.424Z,98768.75
2022-08-16T01:44:45.135Z,98772.34
2022-08-16T01:46:49.520Z,98760.09
2022-08-16T01:49:02.675Z,98768.34
2022-08-16T01:51:16.336Z,98763.69
2022-08-16T01:53:21.116Z,98771.97
2022-08-16T01:55:40.933Z,98780.28
2022-08-16T01:57:53.787Z,98774.78
2022-08-16T02:00:00.650Z,98788.19
2022-08-16T02:02:05.144Z,98775.09
2022-08-16T02:04:48.134Z,98777.91
2022-08-16T02:06:54.412Z,98775.56
2022-08-16T02:08:56.852Z,98777.72
2022-08-16T02:10:59.574Z,98775.25
2022-08-16T02:13:03.325Z,98771.97
2022-08-16T02:15:07.076Z,98775.09
2022-08-16T02:17:12.073Z,98775.81
2022-08-16T02:19:17.767Z,98775.63
2022-08-16T02:21:31.264Z,98773.56
2022-08-16T02:23:36.484Z,98778.72
2022-08-16T02:25:50.643Z,98771.13
2022-08-16T02:27:54.492Z,98779.69
2022-08-16T02:30:05.216Z,98769.91
2022-08-16T02:32:49.788Z,98768.84
2022-08-16T02:34:40.733Z,98769.88
2022-08-16T02:36:49.936Z,98773.88
2022-08-16T02:38:55.258Z,98768.75
2022-08-16T02:40:59.127Z,98760.63
2022-08-16T02:43:02.819Z,98766.28
2022-08-16T02:45:05.858Z,98760.97
2022-08-16T02:47:09.994Z,98768.25
2022-08-16T02:49:12.817Z,98765.53
2022-08-16T02:51:23.471Z,98757.44
2022-08-16T02:53:26.632Z,98768.81
2022-08-16T02:55:40.683Z,98759.88
2022-08-16T02:57:53.896Z,98755.09
2022-08-16T02:59:58.568Z,98762.78
2022-08-16T03:02:01.574Z,98759.50
2022-08-16T03:04:39.955Z,98759.66
2022-08-16T03:06:36.475Z,98758.13
2022-08-16T03:08:54.235Z,98759.34
2022-08-16T03:10:59.470Z,98752.09
2022-08-16T03:13:02.373Z,98757.44
2022-08-16T03:15:10.177Z,98755.56
2022-08-16T03:17:12.759Z,98753.06
2022-08-16T03:19:15.790Z,98760.63
2022-08-16T03:21:19.907Z,98757.16
2022-08-16T03:23:26.694Z,98760.63
2022-08-16T03:25:43.940Z,98759.09
2022-08-16T03:27:46.941Z,98764.78
2022-08-16T03:29:54.649Z,98769.44
2022-08-16T03:32:01.173Z,98767.50
2022-08-16T03:34:04.064Z,98763.72
2022-08-16T03:36:30.203Z,98768.00
2022-08-16T03:38:35.264Z,98780.91
2022-08-16T03:40:50.386Z,98784.84
2022-08-16T03:43:00.497Z,98782.63
2022-08-16T03:45:15.891Z,98786.06
2022-08-16T03:47:19.750Z,98791.41
2022-08-16T03:49:36.480Z,98790.72
2022-08-16T03:51:43.781Z,98786.59
2022-08-16T03:54:01.386Z,98795.69
2022-08-16T03:56:07.972Z,98793.81
2022-08-16T03:58:24.307Z,98795.53
2022-08-16T04:00:43.454Z,98792.78
2022-08-16T04:02:52.670Z,98795.88
2022-08-16T04:05:02.306Z,98800.50
2022-08-16T04:07:08.079Z,98791.91
2022-08-16T04:09:16.690Z,98788.28
2022-08-16T04:11:19.237Z,98794.16
2022-08-16T04:14:00.532Z,98789.31
2022-08-16T04:15:49.508Z,98790.19
2022-08-16T04:18:01.837Z,98793.13
2022-08-16T04:20:24.028Z,98787.06
2022-08-16T04:22:36.177Z,98799.84
2022-08-16T04:24:42.127Z,98799.50
2022-08-16T04:26:57.504Z,98796.22
2022-08-16T04:29:16.621Z,98804.47
2022-08-16T04:31:24.681Z,98811.16
2022-08-16T04:33:28.061Z,98806.69
2022-08-16T04:35:34.524Z,98820.13
2022-08-16T04:37:41.956Z,98802.75
2022-08-16T04:39:59.382Z,98811.31
2022-08-16T04:42:11.333Z,98798.94
2022-08-16T04:44:32.709Z,98798.22
2022-08-16T04:47:02.676Z,98796.19
2022-08-16T04:49:03.338Z,98796.34
2022-08-16T04:51:11.593Z,98796.81
2022-08-16T04:53:23.022Z,98790.09
2022-08-16T04:55:37.761Z,98790.19
2022-08-16T04:57:44.009Z,98794.00
2022-08-16T04:59:46.699Z,98796.06
2022-08-16T05:01:57.664Z,98805.69
2022-08-16T05:04:01.840Z,98801.22
2022-08-16T05:06:11.466Z,98814.13
2022-08-16T05:08:29.617Z,98809.13
2022-08-16T05:10:59.947Z,98804.50
2022-08-16T05:13:05.886Z,98802.75
2022-08-16T05:15:13.103Z,98810.16
2022-08-16T05:17:15.630Z,98813.09
2022-08-16T05:19:21.647Z,98817.56
2022-08-16T05:21:42.910Z,98813.97
2022-08-16T05:23:51.809Z,98814.16
2022-08-16T05:26:01.559Z,98819.00
2022-08-16T05:28:04.120Z,98820.53
2022-08-16T05:30:36.751Z,98828.47
2022-08-16T05:32:36.352Z,98821.59
2022-08-16T05:34:45.386Z,98836.91
2022-08-16T05:36:53.317Z,98850.16
2022-08-16T05:39:01.462Z,98849.97
2022-08-16T05:41:05.145Z,98848.19
2022-08-16T05:43:16.921Z,98851.16
2022-08-16T05:45:21.907Z,98856.31
2022-08-16T05:47:25.919Z,98864.22
2022-08-16T05:49:38.675Z,98860.75
2022-08-16T05:51:47.410Z,98863.19
2022-08-16T05:53:53.302Z,98859.91
2022-08-16T05:55:57.988Z,98860.78
2022-08-16T05:58:01.317Z,98855.78
2022-08-16T06:00:09.384Z,98855.94
2022-08-16T06:02:15.715Z,98853.50
2022-08-16T06:04:35.994Z,98848.38
2022-08-16T06:06:56.037Z,98850.94
2022-08-16T06:09:02.000Z,98852.84
2022-08-16T06:11:10.243Z,98849.75
2022-08-16T06:13:14.245Z,98845.41
2022-08-16T06:15:22.081Z,98847.34
2022-08-16T06:17:25.469Z,98852.50
2022-08-16T06:19:46.137Z,98841.31
2022-08-16T06:21:55.328Z,98846.66
2022-08-16T06:24:01.539Z,98853.19
2022-08-16T06:26:24.369Z,98858.38
2022-08-16T06:28:40.688Z,98860.91
2022-08-16T06:30:49.257Z,98862.50
2022-08-16T06:32:56.365Z,98878.66
2022-08-16T06:35:02.932Z,98872.09
2022-08-16T06:37:08.455Z,98888.63
2022-08-16T06:39:14.293Z,98891.38
2022-08-16T06:41:42.750Z,98888.34
2022-08-16T06:43:56.947Z,98892.63
2022-08-16T06:46:06.857Z,98903.16
2022-08-16T06:48:12.709Z,98900.06
2022-08-16T06:50:28.740Z,98900.56
2022-08-16T06:52:59.771Z,98897.50
2022-08-16T06:54:59.436Z,98898.38
2022-08-16T06:57:02.430Z,98913.50
2022-08-16T06:59:08.985Z,98910.41
2022-08-16T07:01:22.916Z,98920.22
2022-08-16T07:03:32.155Z,98911.06
2022-08-16T07:05:41.506Z,98884.03
2022-08-16T07:07:54.070Z,98870.16
2022-08-16T07:09:58.667Z,98886.63
2022-08-16T07:12:03.764Z,98900.84
2022-08-16T07:14:26.318Z,98913.22
2022-08-16T07:16:42.998Z,98932.69
2022-08-16T07:18:59.317Z,98945.09
2022-08-16T07:21:10.128Z,98957.53
2022-08-16T07:23:14.615Z,98964.06
2022-08-16T07:25:23.904Z,98958.94
2022-08-16T07:27:42.719Z,98957.22
2022-08-16T07:29:48.683Z,98944.41
2022-08-16T07:31:51.526Z,98945.69
2022-08-16T07:33:56.277Z,98946.88
2022-08-16T07:36:06.595Z,98949.63
2022-08-16T07:38:34.948Z,98945.50
2022-08-16T07:41:00.410Z,98943.13
2022-08-16T07:43:02.397Z,98946.22
2022-08-16T07:45:10.063Z,98939.84
2022-08-16T07:47:16.736Z,98945.16
2022-08-16T07:49:22.984Z,98945.34
2022-08-16T07:51:26.418Z,98954.38
2022-08-16T07:53:34.668Z,98949.69
2022-08-16T07:55:48.071Z,98943.31
2022-08-16T07:58:00.903Z,98946.06
2022-08-16T08:00:18.446Z,98950.66
2022-08-16T08:02:27.441Z,98946.53
2022-08-16T08:04:34.036Z,98941.41
2022-08-16T08:06:37.106Z,98936.91
2022-08-16T08:08:51.242Z,98937.84
2022-08-16T08:10:55.892Z,98937.66
2022-08-16T08:13:04.773Z,98944.03
2022-08-16T08:15:12.103Z,98932.97
2022-08-16T08:17:17.689Z,98940.28
2022-08-16T08:19:21.133Z,98939.13
2022-08-16T08:21:26.317Z,98938.44
2022-08-16T08:23:30.526Z,98939.63
2022-08-16T08:25:52.089Z,98938.31
2022-08-16T08:27:57.694Z,98942.19
2022-08-16T08:30:50.636Z,98932.94
2022-08-16T08:32:57.192Z,98928.75
2022-08-16T08:34:49.771Z,98928.47
2022-08-16T08:36:54.201Z,98916.69
2022-08-16T08:39:12.673Z,98911.25
2022-08-16T08:41:19.002Z,98921.72
2022-08-16T08:43:27.014Z,98924.84
2022-08-16T08:45:48.522Z,98919.97
2022-08-16T08:47:54.079Z,98912.34
2022-08-16T08:50:02.137Z,98914.84
2022-08-16T08:52:08.168Z,98914.22
2022-08-16T08:54:17.932Z,98915.56
2022-08-16T08:56:30.116Z,98913.28
2022-08-16T08:58:40.813Z,98918.41
2022-08-16T09:01:09.472Z,98921.00
2022-08-16T09:03:12.200Z,98927.41
2022-08-16T09:05:17.032Z,98933.91
2022-08-16T09:07:23.765Z,98954.63
2022-08-16T09:09:33.575Z,98943.63
2022-08-16T09:11:41.026Z,98933.31
2022-08-16T09:13:47.347Z,98932.34
2022-08-16T09:15:55.643Z,98940.31
2022-08-16T09:17:59.130Z,98921.38
2022-08-16T09:20:05.416Z,98923.84
2022-08-16T09:22:21.102Z,98914.09
2022-08-16T09:24:35.182Z,98916.16
2022-08-16T09:26:47.233Z,98909.88
2022-08-16T09:29:14.774Z,98911.81
2022-08-16T09:31:19.242Z,98912.19
2022-08-16T09:33:23.762Z,98909.28
2022-08-16T09:35:30.818Z,98920.53
2022-08-16T09:37:36.364Z,98921.44
2022-08-16T09:39:42.019Z,98919.44
2022-08-16T09:41:53.164Z,98909.69
2022-08-16T09:44:00.762Z,98917.47
2022-08-16T09:46:45.577Z,98918.78
2022-08-16T09:48:37.182Z,98914.38
2022-08-16T09:50:47.126Z,98918.91
2022-08-16T09:52:49.337Z,98915.19
2022-08-16T09:54:51.486Z,98918.19
2022-08-16T09:56:55.807Z,98918.44
2022-08-16T09:59:05.784Z,98925.53
2022-08-16T10:01:11.405Z,98910.91
2022-08-16T10:03:14.111Z,98916.47
2022-08-16T10:05:16.562Z,98913.88
2022-08-16T10:07:19.107Z,98909.13
2022-08-16T10:09:21.904Z,98918.09
2022-08-16T10:11:50.282Z,98904.25
2022-08-16T10:13:53.586Z,98908.78
2022-08-16T10:16:00.188Z,98909.84
2022-08-16T10:18:56.534Z,98905.38
2022-08-16T10:20:39.909Z,98893.53
2022-08-16T10:22:43.302Z,98901.13
2022-08-16T10:24:55.615Z,98895.63
2022-08-16T10:27:22.299Z,98894.59
2022-08-16T10:29:26.013Z,98904.19
2022-08-16T10:31:53.277Z,98896.94
2022-08-16T10:33:56.228Z,98901.56
2022-08-16T10:36:03.104Z,98895.41
2022-08-16T10:38:06.763Z,98896.56
2022-08-16T10:40:28.681Z,98900.84
2022-08-16T10:42:31.826Z,98903.81
2022-08-16T10:44:34.105Z,98893.84
2022-08-16T10:46:42.262Z,98895.88
2022-08-16T10:48:46.930Z,98888.44
2022-08-16T10:50:49.528Z,98895.03
2022-08-16T10:52:58.762Z,98907.38
2022-08-16T10:57:24.994Z,98891.31
2022-08-16T10:59:44.021Z,98893.38
2022-08-16T11:07:06.460Z,98887.34
2022-08-16T11:09:25.448Z,98882.84
2022-08-16T11:11:28.089Z,98880.22
2022-08-16T11:16:01.247Z,98876.69
2022-08-16T11:20:41.106Z,98865.88
2022-08-16T11:22:48.923Z,98860.63
2022-08-16T11:25:11.801Z,98865.50
2022-08-16T11:27:20.458Z,98864.25
2022-08-16T11:29:26.797Z,98856.06
2022-08-16T11:31:29.300Z,98863.97
2022-08-16T11:38:51.626Z,98860.28
2022-08-16T11:40:52.191Z,98856.75
2022-08-16T11:42:54.927Z,98857.13
2022-08-16T11:44:57.809Z,98856.97
2022-08-16T11:47:00.391Z,98857.28
2022-08-16T11:49:08.689Z,98851.97
2022-08-16T11:51:14.120Z,98848.34
2022-08-16T11:53:17.453Z,98843.22
2022-08-16T11:55:20.052Z,98840.81
2022-08-16T11:57:25.835Z,98837.59
2022-08-16T11:59:29.532Z,98840.34
2022-08-16T12:01:54.833Z,98834.19
2022-08-16T12:03:57.226Z,98823.78
2022-08-16T12:06:02.706Z,98829.44
2022-08-16T12:08:08.908Z,98827.34
2022-08-16T12:10:15.782Z,98827.47
2022-08-16T12:12:18.632Z,98816.94
2022-08-16T12:14:22.668Z,98815.38
2022-08-16T12:16:31.412Z,98814.63
2022-08-16T12:18:37.894Z,98819.41
2022-08-16T12:20:43.905Z,98811.56
2022-08-16T12:22:47.943Z,98814.81
2022-08-16T12:24:51.933Z,98818.28
2022-08-16T12:26:56.355Z,98811.81
2022-08-16T12:28:58.850Z,98808.22
2022-08-16T12:31:01.089Z,98810.63
2022-08-16T12:33:05.070Z,98804.28
2022-08-16T12:35:12.949Z,98787.94
2022-08-16T12:37:15.647Z,98794.41
2022-08-16T12:39:20.563Z,98803.63
2022-08-16T12:41:25.395Z,98794.69
2022-08-16T12:43:31.020Z,98793.63
2022-08-16T12:45:37.724Z,98783.19
2022-08-16T12:48:31.686Z,98787.06
2022-08-16T12:50:24.310Z,98792.44
2022-08-16T12:52:37.733Z,98783.84
2022-08-16T12:54:44.421Z,98787.09
2022-08-16T12:56:57.784Z,98790.69
2022-08-16T12:59:03.120Z,98792.88
2022-08-16T13:01:06.385Z,98795.00
2022-08-16T13:03:09.570Z,98788.63
2022-08-16T13:05:12.692Z,98795.66
2022-08-16T13:07:15.209Z,98790.53
2022-08-16T13:09:20.980Z,98784.34
2022-08-16T13:11:32.514Z,98792.44
2022-08-16T13:13:41.320Z,98783.94
2022-08-16T13:15:57.172Z,98779.66
2022-08-16T13:18:26.155Z,98777.72
2022-08-16T13:20:29.415Z,98784.97
2022-08-16T13:22:31.485Z,98775.34
2022-08-16T13:24:36.017Z,98779.25
2022-08-16T13:26:38.408Z,98772.84
2022-08-16T13:28:40.799Z,98778.19
2022-08-16T13:30:52.841Z,98769.84
2022-08-16T13:32:56.073Z,98771.09
2022-08-16T13:34:58.265Z,98770.66
2022-08-16T13:37:04.099Z,98762.97
2022-08-16T13:39:06.337Z,98766.19
2022-08-16T13:41:12.653Z,98766.81
2022-08-16T13:43:16.094Z,98755.50
2022-08-16T13:45:19.340Z,98760.22
2022-08-16T13:47:22.392Z,98754.44
2022-08-16T13:49:25.378Z,98760.63
2022-08-16T13:51:31.178Z,98762.78
2022-08-16T13:53:33.227Z,98757.41
2022-08-16T13:55:35.549Z,98760.41
2022-08-16T13:58:35.548Z,98755.09
2022-08-16T14:00:00.186Z,98758.72
2022-08-16T14:02:06.675Z,98753.56
2022-08-16T14:04:09.502Z,98750.34
2022-08-16T14:06:14.896Z,98761.44
2022-08-16T14:08:17.050Z,98752.47
2022-08-16T14:10:19.726Z,98760.16
2022-08-16T14:12:31.003Z,98758.88
2022-08-16T14:14:36.300Z,98758.63
2022-08-16T14:16:39.884Z,98759.25
2022-08-16T14:18:44.761Z,98762.69
2022-08-16T14:20:48.942Z,98758.66
2022-08-16T14:22:57.493Z,98753.94
2022-08-16T14:25:00.633Z,98749.41
2022-08-16T14:27:05.670Z,98753.94
2022-08-16T14:29:08.133Z,98742.81
2022-08-16T14:31:11.393Z,98751.16
2022-08-16T14:33:17.147Z,98750.06
2022-08-16T14:35:36.451Z,98751.56
2022-08-16T14:37:39.828Z,98749.03
2022-08-16T14:39:46.680Z,98748.78
2022-08-16T14:41:53.731Z,98754.97
2022-08-16T14:43:58.830Z,98751.75
2022-08-16T14:46:01.378Z,98752.00
2022-08-16T14:48:04.706Z,98762.66
2022-08-16T14:50:10.477Z,98757.75
2022-08-16T14:52:44.382Z,98763.31
2022-08-16T14:54:43.891Z,98756.25
2022-08-16T14:56:54.959Z,98751.53
2022-08-16T14:58:57.507Z,98751.34
2022-08-16T15:01:02.116Z,98752.84
2022-08-16T15:03:09.784Z,98752.84
2022-08-16T15:05:13.238Z,98753.09
2022-08-16T15:07:21.807Z,98742.81
2022-08-16T15:09:24.693Z,98744.31
2022-08-16T15:11:29.196Z,98738.31
2022-08-16T15:13:38.611Z,98744.53
2022-08-16T15:15:43.417Z,98744.75
2022-08-16T15:17:56.625Z,98738.50
2022-08-16T15:19:59.518Z,98735.53
2022-08-16T15:22:02.150Z,98729.97
2022-08-16T15:24:07.292Z,98726.13
2022-08-16T15:26:34.868Z,98724.22
2022-08-16T15:28:41.656Z,98721.25
2022-08-16T15:30:58.450Z,98723.78
2022-08-16T15:33:09.982Z,98718.88
2022-08-16T15:35:13.478Z,98711.63
2022-08-16T15:37:15.843Z,98698.56
2022-08-16T15:39:30.241Z,98698.97
2022-08-16T15:41:42.775Z,98699.41
2022-08-16T15:43:45.950Z,98694.50
2022-08-16T15:46:06.495Z,98690.88
2022-08-16T15:48:12.273Z,98677.38
2022-08-16T15:50:14.563Z,98682.94
2022-08-16T15:52:29.361Z,98682.34
2022-08-16T15:54:52.171Z,98685.97
2022-08-16T15:56:56.493Z,98695.59
2022-08-16T15:58:58.485Z,98685.97
2022-08-16T16:01:02.186Z,98690.03
2022-08-16T16:03:16.585Z,98688.34
2022-08-16T16:05:19.589Z,98694.13
2022-08-16T16:07:21.923Z,98696.88
2022-08-16T16:09:36.946Z,98700.53
2022-08-16T16:11:39.638Z,98708.25
2022-08-16T16:13:43.780Z,98708.91
2022-08-16T16:15:49.747Z,98707.41
2022-08-16T16:17:53.606Z,98708.25
2022-08-16T16:19:56.590Z,98712.97
2022-08-16T16:21:59.914Z,98714.00
2022-08-16T16:24:16.421Z,98715.53
2022-08-16T16:26:24.998Z,98716.19
2022-08-16T16:29:06.402Z,98724.13
2022-08-16T16:30:56.556Z,98717.91
2022-08-16T16:33:00.916Z,98726.91
2022-08-16T16:35:08.984Z,98729.03
2022-08-16T16:37:11.226Z,98735.22
2022-08-16T16:39:13.372Z,98725.41
2022-08-16T16:41:20.670Z,98730.97
2022-08-16T16:43:25.907Z,98731.38
2022-08-16T16:45:36.354Z,98728.59
2022-08-16T16:47:41.764Z,98728.38
2022-08-16T16:49:50.825Z,98732.41
2022-08-16T16:52:06.618Z,98735.00
2022-08-16T16:54:13.033Z,98738.84
2022-08-16T16:56:19.608Z,98745.47
2022-08-16T16:58:43.509Z,98757.88
2022-08-16T17:00:59.741Z,98771.53
2022-08-16T17:03:05.490Z,98798.03
2022-08-16T17:05:08.928Z,98816.38
2022-08-16T17:07:12.354Z,98817.66
2022-08-16T17:09:14.778Z,98817.66
2022-08-16T17:11:17.103Z,98815.28
2022-08-16T17:13:24.185Z,98815.69
2022-08-16T17:15:27.927Z,98827.41
2022-08-16T17:18:00.202Z,98829.09
2022-08-16T17:20:05.280Z,98846.84
2022-08-16T17:22:20.479Z,98868.84
2022-08-16T17:24:39.305Z,98894.00
2022-08-16T17:26:48.929Z,98911.88
2022-08-16T17:28:59.349Z,98911.16
2022-08-16T17:31:04.656Z,98935.00
2022-08-16T17:33:10.462Z,98929.19
2022-08-16T17:35:18.407Z,98941.47
2022-08-16T17:37:42.502Z,98938.00
2022-08-16T17:39:59.832Z,98924.50
2022-08-16T17:42:08.244Z,98938.94
2022-08-16T17:44:10.681Z,98939.47
2022-08-16T17:46:41.137Z,98942.31
2022-08-16T17:48:40.182Z,98913.84
2022-08-16T17:50:45.981Z,98922.16
2022-08-16T17:52:53.862Z,98929.16
2022-08-16T17:54:59.541Z,98916.69
2022-08-16T17:57:01.933Z,98915.59
2022-08-16T17:59:04.474Z,98935.41
2022-08-16T18:01:07.560Z,98928.38
2022-08-16T18:03:17.556Z,98930.69
2022-08-16T18:05:40.201Z,98926.19
2022-08-16T18:07:50.779Z,98925.53
2022-08-16T18:09:54.709Z,98927.06
2022-08-16T18:11:57.305Z,98937.06
2022-08-16T18:13:59.573Z,98943.16
2022-08-16T18:16:04.300Z,98934.00
2022-08-16T18:18:07.466Z,98937.84
2022-08-16T18:20:39.761Z,98936.88
2022-08-16T18:22:42.165Z,98936.22
2022-08-16T18:24:46.968Z,98933.44
2022-08-16T18:26:49.319Z,98945.75
2022-08-16T18:28:51.531Z,98937.44
2022-08-16T18:31:00.759Z,98938.50
2022-08-16T18:33:09.724Z,98941.53
2022-08-16T18:35:12.038Z,98944.78
2022-08-16T18:37:17.203Z,98952.91
2022-08-16T18:39:19.649Z,98956.13
2022-08-16T18:41:24.405Z,98954.44
2022-08-16T18:44:22.585Z,98955.94
2022-08-16T18:45:55.017Z,98956.97
2022-08-16T18:47:57.918Z,98955.81
2022-08-16T18:50:00.819Z,98962.88
2022-08-16T18:52:08.655Z,98958.69
2022-08-16T18:54:13.165Z,98961.47
2022-08-16T18:56:15.250Z,98964.78
2022-08-16T18:58:17.809Z,98971.69
2022-08-16T19:00:24.712Z,98971.03
2022-08-16T19:02:56.034Z,98978.97
2022-08-16T19:04:57.598Z,98977.13
2022-08-16T19:07:00.860Z,98975.19
2022-08-16T19:09:03.045Z,98963.69
2022-08-16T19:11:11.658Z,98958.19
2022-08-16T19:13:20.862Z,98961.59
2022-08-16T19:15:26.751Z,98959.88
2022-08-16T19:17:29.031Z,98956.34
2022-08-16T19:19:33.881Z,98953.47
2022-08-16T19:21:39.239Z,98946.09
2022-08-16T19:23:43.060Z,98947.16
2022-08-16T19:25:53.113Z,98942.53
2022-08-16T19:27:57.003Z,98940.94
2022-08-16T19:29:59.743Z,98939.53
2022-08-16T19:32:01.866Z,98941.25
2022-08-16T19:34:07.196Z,98937.94
2022-08-16T19:36:17.008Z,98943.50
2022-08-16T19:38:31.747Z,98933.97
2022-08-16T19:40:37.628Z,98934.56
2022-08-16T19:42:45.864Z,98930.53
2022-08-16T19:44:57.781Z,98938.34
2022-08-16T19:47:02.051Z,98940.56
2022-08-16T19:49:04.328Z,98949.69
2022-08-16T19:51:07.146Z,98949.38
2022-08-16T19:53:12.975Z,98943.81
2022-08-16T19:55:22.700Z,98938.44
2022-08-16T19:57:25.189Z,98937.94
2022-08-16T19:59:40.435Z,98951.13
2022-08-16T20:01:43.756Z,98946.38
2022-08-16T20:03:48.918Z,98950.91
2022-08-16T20:05:52.661Z,98952.31
2022-08-16T20:08:06.447Z,98956.97
2022-08-16T20:10:09.595Z,98951.81
2022-08-16T20:12:18.738Z,98956.31
2022-08-16T20:14:25.455Z,98944.41
2022-08-16T20:16:28.562Z,98951.34
2022-08-16T20:18:30.538Z,98948.56
2022-08-16T20:20:32.813Z,98950.28
2022-08-16T20:22:52.893Z,98953.56
2022-08-16T20:24:56.344Z,98949.09
2022-08-16T20:26:58.791Z,98950.97
2022-08-16T20:29:01.046Z,98942.72
2022-08-16T20:31:03.155Z,98939.63
2022-08-16T20:33:10.767Z,98937.75
2022-08-16T20:35:17.655Z,98927.94
2022-08-16T20:37:22.131Z,98934.97
2022-08-16T20:39:24.453Z,98927.91
2022-08-16T20:41:27.675Z,98925.00
2022-08-16T20:43:29.624Z,98919.97
2022-08-16T20:45:32.118Z,98918.78
2022-08-16T20:47:34.457Z,98917.75
2022-08-16T20:49:38.069Z,98912.41
2022-08-16T20:51:49.809Z,98911.72
2022-08-16T20:53:53.099Z,98917.19
2022-08-16T20:55:55.308Z,98922.88
2022-08-16T20:57:57.826Z,98924.44
2022-08-16T21:00:00.087Z,98929.47
2022-08-16T21:02:02.969Z,98934.47
2022-08-16T21:04:05.063Z,98936.50
2022-08-16T21:06:07.898Z,98940.66
2022-08-16T21:08:28.761Z,98937.53
2022-08-16T21:10:32.131Z,98946.13
2022-08-16T21:12:34.797Z,98950.78
2022-08-16T21:14:43.029Z,98946.97
2022-08-16T21:16:45.430Z,98955.25
2022-08-16T21:18:48.117Z,98945.97
2022-08-16T21:20:50.609Z,98946.81
2022-08-16T21:23:03.956Z,98946.47
2022-08-16T21:25:12.818Z,98949.03
2022-08-16T21:27:17.990Z,98951.13
2022-08-16T21:29:20.229Z,98957.66
2022-08-16T21:31:22.917Z,98941.34
2022-08-16T21:33:25.308Z,98945.09
2022-08-16T21:35:27.838Z,98948.72
2022-08-16T21:37:30.126Z,98943.56
2022-08-16T21:39:32.690Z,98944.78
2022-08-16T21:41:36.086Z,98942.22
2022-08-16T21:43:39.438Z,98949.78
2022-08-16T21:45:43.687Z,98954.59
2022-08-16T21:47:45.965Z,98951.13
2022-08-16T21:49:48.389Z,98958.69
2022-08-16T21:51:50.602Z,98962.34
2022-08-16T21:53:52.597Z,98952.53
2022-08-16T21:55:57.293Z,98954.75
2022-08-16T21:57:59.807Z,98949.97
2022-08-16T22:00:02.284Z,98956.66
2022-08-16T22:02:15.919Z,98954.59
2022-08-16T22:04:36.921Z,98954.44
2022-08-16T22:06:41.948Z,98951.19
2022-08-16T22:08:49.227Z,98963.03
2022-08-16T22:11:05.813Z,98960.44
2022-08-16T22:13:23.515Z,98962.53
2022-08-16T22:15:26.257Z,98965.47
2022-08-16T22:17:28.736Z,98965.97
2022-08-16T22:19:31.299Z,98965.97
2022-08-16T22:21:34.918Z,98976.81
2022-08-16T22:23:37.043Z,98982.66
2022-08-16T22:25:43.323Z,98982.63
2022-08-16T22:27:47.315Z,98976.06
2022-08-16T22:29:49.465Z,98977.25
2022-08-16T22:31:51.921Z,98981.00
2022-08-16T22:33:56.900Z,98983.25
2022-08-16T22:36:01.502Z,98981.34
2022-08-16T22:38:50.305Z,98981.00
2022-08-16T22:40:25.889Z,98973.47
2022-08-16T22:42:30.317Z,98987.75
2022-08-16T22:44:34.452Z,98983.97
2022-08-16T22:46:36.935Z,98976.22
2022-08-16T22:48:41.238Z,98980.84
2022-08-16T22:50:45.112Z,98991.00
2022-08-16T22:52:56.387Z,98989.44
2022-08-16T22:55:02.185Z,98994.41
2022-08-16T22:57:05.422Z,98989.94
2022-08-16T22:59:07.512Z,98985.78
2022-08-16T23:01:12.942Z,98983.22
2022-08-16T23:03:20.642Z,98987.69
2022-08-16T23:05:24.376Z,98991.28
2022-08-16T23:07:26.633Z,98984.41
2022-08-16T23:09:29.693Z,98992.25
2022-08-16T23:11:31.655Z,98990.16
2022-08-16T23:13:34.200Z,98986.72
2022-08-16T23:15:51.830Z,98985.72
2022-08-16T23:17:55.577Z,98984.00
2022-08-16T23:20:00.430Z,98982.06
2022-08-16T23:22:03.956Z,98971.97
2022-08-16T23:24:09.614Z,98979.31
2022-08-16T23:26:45.036Z,98975.09
2022-08-16T23:28:38.523Z,98977.66
2022-08-16T23:30:43.373Z,98970.44
2022-08-16T23:32:48.566Z,98962.53
2022-08-16T23:34:51.330Z,98970.44
2022-08-16T23:36:57.006Z,98965.94
2022-08-16T23:38:59.725Z,98965.44
2022-08-16T23:41:05.863Z,98965.91
2022-08-16T23:43:23.529Z,98963.31
2022-08-16T23:46:06.769Z,98965.00
2022-08-16T23:48:10.124Z,98952.47
2022-08-16T23:50:12.276Z,98960.03
2022-08-16T23:52:14.863Z,98957.03
2022-08-16T23:54:16.892Z,98957.91
2022-08-16T23:56:20.308Z,98951.16
2022-08-16T23:58:26.590Z,98957.47
